sensor_id;sensor_type;location;lat;lon;timestamp;temperature;humidity
52471;DHT22;38382;53.160;7.026;2023-02-18T00:01:18;6.70;99.90
52471;DHT22;38382;53.160;7.026;2023-02-18T00:03:45;6.60;99.90
52471;DHT22;38382;53.160;7.026;2023-02-18T00:06:17;6.70;99.90
52471;DHT22;38382;53.160;7.026;2023-02-18T00:08:44;6.70;99.90
52471;DHT22;38382;53.160;7.026;2023-02-18T00:11:10;6.70;99.90
52471;DHT22;38382;53.160;7.026;2023-02-18T00:13:36;6.70;99.90
52471;DHT22;38382;53.160;7.026;2023-02-18T00:16:08;6.70;99.90
52471;DHT22;38382;53.160;7.026;2023-02-18T00:18:34;6.70;99.90
52471;DHT22;38382;53.160;7.026;2023-02-18T00:21:01;6.70;99.90
52471;DHT22;38382;53.160;7.026;2023-02-18T00:23:27;6.70;99.90
52471;DHT22;38382;53.160;7.026;2023-02-18T00:26:01;7.10;99.90
52471;DHT22;38382;53.160;7.026;2023-02-18T00:28:27;6.70;99.90
52471;DHT22;38382;53.160;7.026;2023-02-18T00:30:53;6.80;99.90
52471;DHT22;38382;53.160;7.026;2023-02-18T00:33:19;6.80;99.90
52471;DHT22;38382;53.160;7.026;2023-02-18T00:35:44;6.80;99.90
52471;DHT22;38382;53.160;7.026;2023-02-18T00:38:10;7.40;99.90
52471;DHT22;38382;53.160;7.026;2023-02-18T00:40:37;6.80;99.90
52471;DHT22;38382;53.160;7.026;2023-02-18T00:43:03;6.90;99.90
52471;DHT22;38382;53.160;7.026;2023-02-18T00:45:29;6.80;99.90
52471;DHT22;38382;53.160;7.026;2023-02-18T00:47:55;7.30;99.90
52471;DHT22;38382;53.160;7.026;2023-02-18T00:50:20;6.80;99.90
52471;DHT22;38382;53.160;7.026;2023-02-18T00:52:46;6.80;99.90
52471;DHT22;38382;53.160;7.026;2023-02-18T00:55:12;6.80;99.90
52471;DHT22;38382;53.160;7.026;2023-02-18T00:57:37;6.70;99.90
52471;DHT22;38382;53.160;7.026;2023-02-18T01:00:07;6.70;99.90
52471;DHT22;38382;53.160;7.026;2023-02-18T01:02:33;6.70;99.90
52471;DHT22;38382;53.160;7.026;2023-02-18T01:04:59;6.70;99.90
52471;DHT22;38382;53.160;7.026;2023-02-18T01:07:25;7.20;99.90
52471;DHT22;38382;53.160;7.026;2023-02-18T01:09:50;7.00;99.90
52471;DHT22;38382;53.160;7.026;2023-02-18T01:12:16;6.50;99.90
52471;DHT22;38382;53.160;7.026;2023-02-18T01:14:42;6.50;99.90
52471;DHT22;38382;53.160;7.026;2023-02-18T01:17:08;6.50;99.90
52471;DHT22;38382;53.160;7.026;2023-02-18T01:19:33;6.40;99.90
52471;DHT22;38382;53.160;7.026;2023-02-18T01:21:59;6.40;99.90
52471;DHT22;38382;53.160;7.026;2023-02-18T01:24:25;6.30;99.90
52471;DHT22;38382;53.160;7.026;2023-02-18T01:26:51;6.30;99.90
52471;DHT22;38382;53.160;7.026;2023-02-18T01:29:16;6.30;99.90
52471;DHT22;38382;53.160;7.026;2023-02-18T01:31:42;6.40;99.90
52471;DHT22;38382;53.160;7.026;2023-02-18T01:34:08;6.30;99.90
52471;DHT22;38382;53.160;7.026;2023-02-18T01:36:34;6.30;99.90
52471;DHT22;38382;53.160;7.026;2023-02-18T01:38:59;6.80;99.90
52471;DHT22;38382;53.160;7.026;2023-02-18T01:41:25;6.30;99.90
52471;DHT22;38382;53.160;7.026;2023-02-18T01:44:15;6.40;99.90
52471;DHT22;38382;53.160;7.026;2023-02-18T01:46:41;6.40;99.90
52471;DHT22;38382;53.160;7.026;2023-02-18T01:49:07;6.60;99.90
52471;DHT22;38382;53.160;7.026;2023-02-18T01:51:38;6.50;99.90
52471;DHT22;38382;53.160;7.026;2023-02-18T01:54:18;6.50;99.90
52471;DHT22;38382;53.160;7.026;2023-02-18T01:56:50;6.60;99.90
52471;DHT22;38382;53.160;7.026;2023-02-18T01:59:23;6.80;99.90
52471;DHT22;38382;53.160;7.026;2023-02-18T02:01:49;7.00;99.90
52471;DHT22;38382;53.160;7.026;2023-02-18T02:04:16;6.70;99.90
52471;DHT22;38382;53.160;7.026;2023-02-18T02:06:42;6.80;99.90
52471;DHT22;38382;53.160;7.026;2023-02-18T02:09:10;6.90;99.90
52471;DHT22;38382;53.160;7.026;2023-02-18T02:17:41;6.80;99.90
52471;DHT22;38382;53.160;7.026;2023-02-18T02:33:50;6.90;99.90
52471;DHT22;38382;53.160;7.026;2023-02-18T02:39:53;6.90;99.90
52471;DHT22;38382;53.160;7.026;2023-02-18T02:42:37;7.00;99.90
52471;DHT22;38382;53.160;7.026;2023-02-18T02:45:23;7.00;99.90
52471;DHT22;38382;53.160;7.026;2023-02-18T02:53:51;7.00;99.90
52471;DHT22;38382;53.160;7.026;2023-02-18T02:56:23;7.00;99.90
52471;DHT22;38382;53.160;7.026;2023-02-18T02:59:04;7.00;99.90
52471;DHT22;38382;53.160;7.026;2023-02-18T03:15:12;7.10;99.90
52471;DHT22;38382;53.160;7.026;2023-02-18T03:20:26;7.10;99.90
52471;DHT22;38382;53.160;7.026;2023-02-18T03:22:53;7.10;99.90
52471;DHT22;38382;53.160;7.026;2023-02-18T03:25:20;7.20;99.90
52471;DHT22;38382;53.160;7.026;2023-02-18T03:28:23;7.10;99.90
52471;DHT22;38382;53.160;7.026;2023-02-18T03:31:01;7.10;99.90
52471;DHT22;38382;53.160;7.026;2023-02-18T03:33:34;7.10;99.90
52471;DHT22;38382;53.160;7.026;2023-02-18T03:36:02;7.10;99.90
52471;DHT22;38382;53.160;7.026;2023-02-18T03:38:35;7.10;99.90
52471;DHT22;38382;53.160;7.026;2023-02-18T03:41:03;7.10;99.90
52471;DHT22;38382;53.160;7.026;2023-02-18T03:43:30;7.10;99.90
52471;DHT22;38382;53.160;7.026;2023-02-18T03:45:56;7.10;99.90
52471;DHT22;38382;53.160;7.026;2023-02-18T03:48:22;7.10;99.90
52471;DHT22;38382;53.160;7.026;2023-02-18T03:50:48;7.50;99.90
52471;DHT22;38382;53.160;7.026;2023-02-18T03:53:13;7.10;99.90
52471;DHT22;38382;53.160;7.026;2023-02-18T03:55:39;7.10;99.90
52471;DHT22;38382;53.160;7.026;2023-02-18T03:58:05;7.10;99.90
52471;DHT22;38382;53.160;7.026;2023-02-18T04:00:31;7.10;99.90
52471;DHT22;38382;53.160;7.026;2023-02-18T04:02:56;8.00;99.90
52471;DHT22;38382;53.160;7.026;2023-02-18T04:05:22;7.20;99.90
52471;DHT22;38382;53.160;7.026;2023-02-18T04:07:48;7.20;99.90
52471;DHT22;38382;53.160;7.026;2023-02-18T04:10:13;7.20;99.90
52471;DHT22;38382;53.160;7.026;2023-02-18T04:12:39;7.20;99.90
52471;DHT22;38382;53.160;7.026;2023-02-18T04:15:05;7.20;99.90
52471;DHT22;38382;53.160;7.026;2023-02-18T04:17:32;7.20;99.90
52471;DHT22;38382;53.160;7.026;2023-02-18T04:19:58;7.30;99.90
52471;DHT22;38382;53.160;7.026;2023-02-18T04:22:24;7.30;99.90
52471;DHT22;38382;53.160;7.026;2023-02-18T04:24:49;7.30;99.90
52471;DHT22;38382;53.160;7.026;2023-02-18T04:27:15;7.30;99.90
52471;DHT22;38382;53.160;7.026;2023-02-18T04:29:41;7.30;99.90
52471;DHT22;38382;53.160;7.026;2023-02-18T04:32:07;7.30;99.90
52471;DHT22;38382;53.160;7.026;2023-02-18T04:34:32;7.40;99.90
52471;DHT22;38382;53.160;7.026;2023-02-18T04:36:58;7.30;99.90
52471;DHT22;38382;53.160;7.026;2023-02-18T04:39:24;7.30;99.90
52471;DHT22;38382;53.160;7.026;2023-02-18T04:41:50;7.30;99.90
52471;DHT22;38382;53.160;7.026;2023-02-18T04:44:15;7.30;99.90
52471;DHT22;38382;53.160;7.026;2023-02-18T04:46:43;7.30;99.90
52471;DHT22;38382;53.160;7.026;2023-02-18T04:49:15;7.40;99.90
52471;DHT22;38382;53.160;7.026;2023-02-18T04:51:41;7.30;99.90
52471;DHT22;38382;53.160;7.026;2023-02-18T04:54:29;7.60;99.90
52471;DHT22;38382;53.160;7.026;2023-02-18T04:56:55;7.20;99.90
52471;DHT22;38382;53.160;7.026;2023-02-18T04:59:22;7.30;99.90
52471;DHT22;38382;53.160;7.026;2023-02-18T05:01:47;7.20;99.90
52471;DHT22;38382;53.160;7.026;2023-02-18T05:04:13;7.20;99.90
52471;DHT22;38382;53.160;7.026;2023-02-18T05:06:49;7.30;99.90
52471;DHT22;38382;53.160;7.026;2023-02-18T05:09:15;7.20;99.90
52471;DHT22;38382;53.160;7.026;2023-02-18T05:14:47;7.70;99.90
52471;DHT22;38382;53.160;7.026;2023-02-18T05:17:51;6.80;99.90
52471;DHT22;38382;53.160;7.026;2023-02-18T05:27:28;7.30;99.90
52471;DHT22;38382;53.160;7.026;2023-02-18T05:36:42;6.60;99.90
52471;DHT22;38382;53.160;7.026;2023-02-18T05:39:27;7.40;99.90
52471;DHT22;38382;53.160;7.026;2023-02-18T05:45:16;7.40;99.90
52471;DHT22;38382;53.160;7.026;2023-02-18T05:48:01;7.10;99.90
52471;DHT22;38382;53.160;7.026;2023-02-18T05:53:47;7.10;99.90
52471;DHT22;38382;53.160;7.026;2023-02-18T05:56:18;7.60;99.90
52471;DHT22;38382;53.160;7.026;2023-02-18T05:58:47;7.40;99.90
52471;DHT22;38382;53.160;7.026;2023-02-18T06:02:27;7.60;99.90
52471;DHT22;38382;53.160;7.026;2023-02-18T06:05:16;7.30;99.90
52471;DHT22;38382;53.160;7.026;2023-02-18T06:15:08;8.50;99.90
52471;DHT22;38382;53.160;7.026;2023-02-18T06:36:36;6.90;99.90
52471;DHT22;38382;53.160;7.026;2023-02-18T06:39:54;8.20;99.90
52471;DHT22;38382;53.160;7.026;2023-02-18T06:43:07;8.50;99.90
52471;DHT22;38382;53.160;7.026;2023-02-18T06:45:48;8.30;99.90
52471;DHT22;38382;53.160;7.026;2023-02-18T06:49:28;8.20;99.90
52471;DHT22;38382;53.160;7.026;2023-02-18T06:52:00;8.20;99.90
52471;DHT22;38382;53.160;7.026;2023-02-18T06:58:50;7.80;99.90
52471;DHT22;38382;53.160;7.026;2023-02-18T07:01:45;8.30;99.90
52471;DHT22;38382;53.160;7.026;2023-02-18T07:04:20;8.40;99.90
52471;DHT22;38382;53.160;7.026;2023-02-18T07:07:04;8.60;99.90
52471;DHT22;38382;53.160;7.026;2023-02-18T07:09:46;8.30;99.90
52471;DHT22;38382;53.160;7.026;2023-02-18T07:12:20;9.10;99.90
52471;DHT22;38382;53.160;7.026;2023-02-18T07:15:13;8.70;99.90
52471;DHT22;38382;53.160;7.026;2023-02-18T07:17:42;8.10;99.90
52471;DHT22;38382;53.160;7.026;2023-02-18T07:20:36;8.60;99.90
52471;DHT22;38382;53.160;7.026;2023-02-18T07:23:17;8.80;99.90
52471;DHT22;38382;53.160;7.026;2023-02-18T07:26:31;8.60;99.90
52471;DHT22;38382;53.160;7.026;2023-02-18T07:29:06;8.70;99.90
52471;DHT22;38382;53.160;7.026;2023-02-18T07:31:55;8.70;99.90
52471;DHT22;38382;53.160;7.026;2023-02-18T07:34:42;8.80;99.90
52471;DHT22;38382;53.160;7.026;2023-02-18T07:44:26;8.90;99.90
52471;DHT22;38382;53.160;7.026;2023-02-18T07:53:59;9.10;99.90
52471;DHT22;38382;53.160;7.026;2023-02-18T08:07:54;10.50;99.90
52471;DHT22;38382;53.160;7.026;2023-02-18T08:18:20;9.40;99.90
52471;DHT22;38382;53.160;7.026;2023-02-18T08:20:55;9.40;99.90
52471;DHT22;38382;53.160;7.026;2023-02-18T08:23:21;9.40;99.90
52471;DHT22;38382;53.160;7.026;2023-02-18T08:29:11;9.80;99.90
52471;DHT22;38382;53.160;7.026;2023-02-18T08:31:37;9.40;99.90
52471;DHT22;38382;53.160;7.026;2023-02-18T08:34:03;9.40;99.90
52471;DHT22;38382;53.160;7.026;2023-02-18T08:36:47;9.50;99.90
52471;DHT22;38382;53.160;7.026;2023-02-18T08:39:13;9.50;99.90
52471;DHT22;38382;53.160;7.026;2023-02-18T08:41:42;9.50;99.90
52471;DHT22;38382;53.160;7.026;2023-02-18T08:44:07;9.40;99.90
52471;DHT22;38382;53.160;7.026;2023-02-18T08:46:33;9.50;99.90
52471;DHT22;38382;53.160;7.026;2023-02-18T08:49:08;9.50;99.90
52471;DHT22;38382;53.160;7.026;2023-02-18T08:51:34;9.60;99.90
52471;DHT22;38382;53.160;7.026;2023-02-18T08:54:00;9.50;99.90
52471;DHT22;38382;53.160;7.026;2023-02-18T08:56:28;9.60;99.90
52471;DHT22;38382;53.160;7.026;2023-02-18T08:58:57;9.50;99.90
52471;DHT22;38382;53.160;7.026;2023-02-18T09:01:23;9.30;99.90
52471;DHT22;38382;53.160;7.026;2023-02-18T09:03:49;9.20;99.90
52471;DHT22;38382;53.160;7.026;2023-02-18T09:09:21;9.80;99.90
52471;DHT22;38382;53.160;7.026;2023-02-18T09:11:50;9.40;99.90
52471;DHT22;38382;53.160;7.026;2023-02-18T09:14:18;9.30;99.90
52471;DHT22;38382;53.160;7.026;2023-02-18T09:16:46;9.50;99.90
52471;DHT22;38382;53.160;7.026;2023-02-18T09:19:16;9.60;99.90
52471;DHT22;38382;53.160;7.026;2023-02-18T09:21:45;9.40;99.90
52471;DHT22;38382;53.160;7.026;2023-02-18T09:24:25;9.50;99.90
52471;DHT22;38382;53.160;7.026;2023-02-18T09:26:56;9.60;99.90
52471;DHT22;38382;53.160;7.026;2023-02-18T09:29:22;9.40;99.90
52471;DHT22;38382;53.160;7.026;2023-02-18T09:31:48;9.50;99.90
52471;DHT22;38382;53.160;7.026;2023-02-18T09:34:14;9.50;99.90
52471;DHT22;38382;53.160;7.026;2023-02-18T09:36:39;9.40;99.90
52471;DHT22;38382;53.160;7.026;2023-02-18T09:39:05;9.40;99.90
52471;DHT22;38382;53.160;7.026;2023-02-18T10:13:03;9.40;99.90
52471;DHT22;38382;53.160;7.026;2023-02-18T10:15:30;9.70;99.90
52471;DHT22;38382;53.160;7.026;2023-02-18T10:18:34;9.50;99.90
52471;DHT22;38382;53.160;7.026;2023-02-18T10:26:41;9.50;99.90
52471;DHT22;38382;53.160;7.026;2023-02-18T10:29:19;9.50;99.90
52471;DHT22;38382;53.160;7.026;2023-02-18T10:32:34;9.40;99.90
52471;DHT22;38382;53.160;7.026;2023-02-18T10:50:54;10.00;99.90
52471;DHT22;38382;53.160;7.026;2023-02-18T10:57:54;10.00;99.90
52471;DHT22;38382;53.160;7.026;2023-02-18T11:00:26;9.90;99.90
52471;DHT22;38382;53.160;7.026;2023-02-18T11:06:51;10.80;99.90
52471;DHT22;38382;53.160;7.026;2023-02-18T11:17:26;10.60;99.90
52471;DHT22;38382;53.160;7.026;2023-02-18T11:37:52;11.00;99.90
52471;DHT22;38382;53.160;7.026;2023-02-18T11:40:39;9.30;99.90
52471;DHT22;38382;53.160;7.026;2023-02-18T11:43:35;10.50;99.90
52471;DHT22;38382;53.160;7.026;2023-02-18T11:46:30;10.50;99.90
52471;DHT22;38382;53.160;7.026;2023-02-18T11:49:23;10.50;99.90
52471;DHT22;38382;53.160;7.026;2023-02-18T11:55:11;9.70;99.90
52471;DHT22;38382;53.160;7.026;2023-02-18T11:57:43;10.50;99.90
52471;DHT22;38382;53.160;7.026;2023-02-18T12:03:47;10.70;99.90
52471;DHT22;38382;53.160;7.026;2023-02-18T12:06:21;10.60;99.90
52471;DHT22;38382;53.160;7.026;2023-02-18T12:08:51;10.60;99.90
52471;DHT22;38382;53.160;7.026;2023-02-18T12:11:27;10.70;99.90
52471;DHT22;38382;53.160;7.026;2023-02-18T12:13:56;10.70;99.90
52471;DHT22;38382;53.160;7.026;2023-02-18T12:19:59;10.70;99.90
52471;DHT22;38382;53.160;7.026;2023-02-18T12:22:44;10.80;99.90
52471;DHT22;38382;53.160;7.026;2023-02-18T12:27:51;10.80;99.90
52471;DHT22;38382;53.160;7.026;2023-02-18T12:48:13;11.20;99.90
52471;DHT22;38382;53.160;7.026;2023-02-18T12:57:06;11.20;99.90
52471;DHT22;38382;53.160;7.026;2023-02-18T13:05:11;11.50;99.90
52471;DHT22;38382;53.160;7.026;2023-02-18T13:07:58;11.60;99.90
52471;DHT22;38382;53.160;7.026;2023-02-18T13:13:25;11.70;99.90
52471;DHT22;38382;53.160;7.026;2023-02-18T13:16:08;11.80;99.90
52471;DHT22;38382;53.160;7.026;2023-02-18T13:18:37;11.90;99.90
52471;DHT22;38382;53.160;7.026;2023-02-18T13:21:07;12.00;99.90
52471;DHT22;38382;53.160;7.026;2023-02-18T13:23:38;12.00;99.90
52471;DHT22;38382;53.160;7.026;2023-02-18T13:26:08;12.00;99.90
52471;DHT22;38382;53.160;7.026;2023-02-18T13:29:08;12.00;99.90
52471;DHT22;38382;53.160;7.026;2023-02-18T13:34:49;11.90;99.90
52471;DHT22;38382;53.160;7.026;2023-02-18T13:37:29;11.80;99.90
52471;DHT22;38382;53.160;7.026;2023-02-18T13:39:58;11.80;99.90
52471;DHT22;38382;53.160;7.026;2023-02-18T13:42:36;11.70;99.90
52471;DHT22;38382;53.160;7.026;2023-02-18T13:45:04;11.70;99.90
52471;DHT22;38382;53.160;7.026;2023-02-18T13:47:45;11.70;99.90
52471;DHT22;38382;53.160;7.026;2023-02-18T13:55:59;11.60;99.90
52471;DHT22;38382;53.160;7.026;2023-02-18T13:58:49;11.50;99.90
52471;DHT22;38382;53.160;7.026;2023-02-18T14:06:32;11.80;99.90
52471;DHT22;38382;53.160;7.026;2023-02-18T14:14:51;11.60;99.90
52471;DHT22;38382;53.160;7.026;2023-02-18T14:19:55;11.40;99.90
52471;DHT22;38382;53.160;7.026;2023-02-18T14:27:34;11.40;99.90
52471;DHT22;38382;53.160;7.026;2023-02-18T14:30:05;11.30;99.90
52471;DHT22;38382;53.160;7.026;2023-02-18T14:32:32;11.30;99.90
52471;DHT22;38382;53.160;7.026;2023-02-18T14:38:22;11.30;99.90
52471;DHT22;38382;53.160;7.026;2023-02-18T14:41:33;11.30;99.90
52471;DHT22;38382;53.160;7.026;2023-02-18T14:49:39;11.20;99.90
52471;DHT22;38382;53.160;7.026;2023-02-18T14:54:57;11.20;99.90
52471;DHT22;38382;53.160;7.026;2023-02-18T14:57:43;11.20;99.90
52471;DHT22;38382;53.160;7.026;2023-02-18T15:00:18;11.10;99.90
52471;DHT22;38382;53.160;7.026;2023-02-18T15:02:48;11.10;99.90
52471;DHT22;38382;53.160;7.026;2023-02-18T15:05:19;10.90;99.90
52471;DHT22;38382;53.160;7.026;2023-02-18T15:07:59;10.90;99.90
52471;DHT22;38382;53.160;7.026;2023-02-18T15:11:02;10.80;99.90
52471;DHT22;38382;53.160;7.026;2023-02-18T15:13:39;10.70;99.90
52471;DHT22;38382;53.160;7.026;2023-02-18T15:16:33;10.70;99.90
52471;DHT22;38382;53.160;7.026;2023-02-18T15:19:05;10.70;99.90
52471;DHT22;38382;53.160;7.026;2023-02-18T15:21:39;10.70;99.90
52471;DHT22;38382;53.160;7.026;2023-02-18T15:26:45;10.60;99.90
52471;DHT22;38382;53.160;7.026;2023-02-18T15:29:33;10.60;99.90
52471;DHT22;38382;53.160;7.026;2023-02-18T15:32:01;10.50;99.90
52471;DHT22;38382;53.160;7.026;2023-02-18T15:34:35;10.50;99.90
52471;DHT22;38382;53.160;7.026;2023-02-18T15:37:05;10.50;99.90
52471;DHT22;38382;53.160;7.026;2023-02-18T15:39:31;10.50;99.90
52471;DHT22;38382;53.160;7.026;2023-02-18T15:42:06;10.50;99.90
52471;DHT22;38382;53.160;7.026;2023-02-18T15:44:34;10.40;99.90
52471;DHT22;38382;53.160;7.026;2023-02-18T15:47:05;10.40;99.90
52471;DHT22;38382;53.160;7.026;2023-02-18T15:49:34;10.40;99.90
52471;DHT22;38382;53.160;7.026;2023-02-18T15:52:01;10.40;99.90
52471;DHT22;38382;53.160;7.026;2023-02-18T15:54:28;10.30;99.90
52471;DHT22;38382;53.160;7.026;2023-02-18T15:56:56;10.30;99.90
52471;DHT22;38382;53.160;7.026;2023-02-18T15:59:28;10.00;99.90
52471;DHT22;38382;53.160;7.026;2023-02-18T16:04:39;10.20;99.90
52471;DHT22;38382;53.160;7.026;2023-02-18T16:07:23;10.20;99.90
52471;DHT22;38382;53.160;7.026;2023-02-18T16:09:49;10.10;99.90
52471;DHT22;38382;53.160;7.026;2023-02-18T16:12:28;10.10;99.90
52471;DHT22;38382;53.160;7.026;2023-02-18T16:14:55;10.10;99.90
52471;DHT22;38382;53.160;7.026;2023-02-18T16:17:24;10.00;99.90
52471;DHT22;38382;53.160;7.026;2023-02-18T16:20:12;10.00;99.90
52471;DHT22;38382;53.160;7.026;2023-02-18T16:22:44;10.00;99.90
52471;DHT22;38382;53.160;7.026;2023-02-18T16:25:18;9.90;99.90
52471;DHT22;38382;53.160;7.026;2023-02-18T16:28:01;9.90;99.90
52471;DHT22;38382;53.160;7.026;2023-02-18T16:30:30;9.80;99.90
52471;DHT22;38382;53.160;7.026;2023-02-18T16:32:57;9.80;99.90
52471;DHT22;38382;53.160;7.026;2023-02-18T16:35:26;9.80;99.90
52471;DHT22;38382;53.160;7.026;2023-02-18T16:37:53;9.80;99.90
52471;DHT22;38382;53.160;7.026;2023-02-18T16:40:38;9.70;99.90
52471;DHT22;38382;53.160;7.026;2023-02-18T16:43:19;9.70;99.90
52471;DHT22;38382;53.160;7.026;2023-02-18T16:45:46;9.70;99.90
52471;DHT22;38382;53.160;7.026;2023-02-18T16:50:50;9.50;99.90
52471;DHT22;38382;53.160;7.026;2023-02-18T16:53:16;9.50;99.90
52471;DHT22;38382;53.160;7.026;2023-02-18T16:55:42;9.40;99.90
52471;DHT22;38382;53.160;7.026;2023-02-18T16:58:08;9.40;99.90
52471;DHT22;38382;53.160;7.026;2023-02-18T17:00:33;9.40;99.90
52471;DHT22;38382;53.160;7.026;2023-02-18T17:02:59;9.40;99.90
52471;DHT22;38382;53.160;7.026;2023-02-18T17:05:31;9.30;99.90
52471;DHT22;38382;53.160;7.026;2023-02-18T17:08:17;9.40;99.90
52471;DHT22;38382;53.160;7.026;2023-02-18T17:10:46;9.30;99.90
52471;DHT22;38382;53.160;7.026;2023-02-18T17:13:23;9.30;99.90
52471;DHT22;38382;53.160;7.026;2023-02-18T17:15:51;9.20;99.90
52471;DHT22;38382;53.160;7.026;2023-02-18T17:18:17;9.20;99.90
52471;DHT22;38382;53.160;7.026;2023-02-18T17:20:44;9.20;99.90
52471;DHT22;38382;53.160;7.026;2023-02-18T17:23:13;9.20;99.90
52471;DHT22;38382;53.160;7.026;2023-02-18T17:25:40;9.10;99.90
52471;DHT22;38382;53.160;7.026;2023-02-18T17:28:06;9.10;99.90
52471;DHT22;38382;53.160;7.026;2023-02-18T17:30:36;9.10;99.90
52471;DHT22;38382;53.160;7.026;2023-02-18T17:33:03;9.00;99.90
52471;DHT22;38382;53.160;7.026;2023-02-18T17:35:29;9.00;99.90
52471;DHT22;38382;53.160;7.026;2023-02-18T17:37:58;9.00;99.90
52471;DHT22;38382;53.160;7.026;2023-02-18T17:40:27;9.00;99.90
52471;DHT22;38382;53.160;7.026;2023-02-18T17:42:54;9.00;99.90
52471;DHT22;38382;53.160;7.026;2023-02-18T17:45:27;9.00;99.90
52471;DHT22;38382;53.160;7.026;2023-02-18T17:47:58;9.00;99.90
52471;DHT22;38382;53.160;7.026;2023-02-18T17:50:24;8.90;99.90
52471;DHT22;38382;53.160;7.026;2023-02-18T17:52:51;7.80;99.90
52471;DHT22;38382;53.160;7.026;2023-02-18T17:58:46;8.90;99.90
52471;DHT22;38382;53.160;7.026;2023-02-18T18:01:13;8.80;99.90
52471;DHT22;38382;53.160;7.026;2023-02-18T18:03:42;8.90;99.90
52471;DHT22;38382;53.160;7.026;2023-02-18T18:06:16;8.70;99.90
52471;DHT22;38382;53.160;7.026;2023-02-18T18:08:42;8.80;99.90
52471;DHT22;38382;53.160;7.026;2023-02-18T18:11:18;8.70;99.90
52471;DHT22;38382;53.160;7.026;2023-02-18T18:14:16;8.90;99.90
52471;DHT22;38382;53.160;7.026;2023-02-18T18:28:14;8.30;99.90
52471;DHT22;38382;53.160;7.026;2023-02-18T18:41:42;8.80;99.90
52471;DHT22;38382;53.160;7.026;2023-02-18T18:44:13;8.70;99.90
52471;DHT22;38382;53.160;7.026;2023-02-18T18:50:23;8.70;99.90
52471;DHT22;38382;53.160;7.026;2023-02-18T18:52:52;8.70;99.90
52471;DHT22;38382;53.160;7.026;2023-02-18T18:57:53;8.70;99.90
52471;DHT22;38382;53.160;7.026;2023-02-18T19:00:22;8.70;99.90
52471;DHT22;38382;53.160;7.026;2023-02-18T19:02:48;8.70;99.90
52471;DHT22;38382;53.160;7.026;2023-02-18T19:07:51;8.70;99.90
52471;DHT22;38382;53.160;7.026;2023-02-18T19:10:17;8.70;99.90
52471;DHT22;38382;53.160;7.026;2023-02-18T19:12:43;8.70;99.90
52471;DHT22;38382;53.160;7.026;2023-02-18T19:15:18;8.70;99.90
52471;DHT22;38382;53.160;7.026;2023-02-18T19:17:50;8.60;99.90
52471;DHT22;38382;53.160;7.026;2023-02-18T19:20:19;8.60;99.90
52471;DHT22;38382;53.160;7.026;2023-02-18T19:22:45;8.60;99.90
52471;DHT22;38382;53.160;7.026;2023-02-18T19:25:11;8.60;99.90
52471;DHT22;38382;53.160;7.026;2023-02-18T19:27:40;8.50;99.90
52471;DHT22;38382;53.160;7.026;2023-02-18T19:30:15;8.50;99.90
52471;DHT22;38382;53.160;7.026;2023-02-18T19:32:44;8.50;99.90
52471;DHT22;38382;53.160;7.026;2023-02-18T19:35:10;8.50;99.90
52471;DHT22;38382;53.160;7.026;2023-02-18T19:37:37;8.40;99.90
52471;DHT22;38382;53.160;7.026;2023-02-18T19:40:05;7.10;99.90
52471;DHT22;38382;53.160;7.026;2023-02-18T19:42:31;8.30;99.90
52471;DHT22;38382;53.160;7.026;2023-02-18T19:44:57;9.20;99.90
52471;DHT22;38382;53.160;7.026;2023-02-18T19:47:41;8.50;99.90
52471;DHT22;38382;53.160;7.026;2023-02-18T19:50:09;8.60;99.90
52471;DHT22;38382;53.160;7.026;2023-02-18T19:52:36;8.00;99.90
52471;DHT22;38382;53.160;7.026;2023-02-18T19:55:05;8.50;99.90
52471;DHT22;38382;53.160;7.026;2023-02-18T20:27:25;8.30;99.90
52471;DHT22;38382;53.160;7.026;2023-02-18T20:29:54;7.50;99.90
52471;DHT22;38382;53.160;7.026;2023-02-18T20:32:22;8.50;99.90
52471;DHT22;38382;53.160;7.026;2023-02-18T20:35:10;6.90;99.90
52471;DHT22;38382;53.160;7.026;2023-02-18T20:37:52;8.70;99.90
52471;DHT22;38382;53.160;7.026;2023-02-18T20:53:12;9.70;99.90
52471;DHT22;38382;53.160;7.026;2023-02-18T20:55:45;8.30;99.90
52471;DHT22;38382;53.160;7.026;2023-02-18T20:58:22;8.30;99.90
52471;DHT22;38382;53.160;7.026;2023-02-18T21:01:00;8.40;99.90
52471;DHT22;38382;53.160;7.026;2023-02-18T21:03:27;8.50;99.90
52471;DHT22;38382;53.160;7.026;2023-02-18T21:06:15;8.30;99.90
52471;DHT22;38382;53.160;7.026;2023-02-18T21:08:43;8.40;99.90
52471;DHT22;38382;53.160;7.026;2023-02-18T21:14:30;7.50;99.90
52471;DHT22;38382;53.160;7.026;2023-02-18T21:16:56;8.30;99.90
52471;DHT22;38382;53.160;7.026;2023-02-18T21:19:22;8.40;99.90
52471;DHT22;38382;53.160;7.026;2023-02-18T21:21:47;8.40;99.90
52471;DHT22;38382;53.160;7.026;2023-02-18T21:24:13;8.40;99.90
52471;DHT22;38382;53.160;7.026;2023-02-18T21:26:39;8.30;99.90
52471;DHT22;38382;53.160;7.026;2023-02-18T21:29:06;8.40;99.90
52471;DHT22;38382;53.160;7.026;2023-02-18T21:31:40;8.40;99.90
52471;DHT22;38382;53.160;7.026;2023-02-18T21:34:13;8.50;99.90
52471;DHT22;38382;53.160;7.026;2023-02-18T21:36:39;8.50;99.90
52471;DHT22;38382;53.160;7.026;2023-02-18T21:39:08;8.40;99.90
52471;DHT22;38382;53.160;7.026;2023-02-18T21:41:35;8.40;99.90
52471;DHT22;38382;53.160;7.026;2023-02-18T21:44:01;8.30;99.90
52471;DHT22;38382;53.160;7.026;2023-02-18T21:46:29;8.30;99.90
52471;DHT22;38382;53.160;7.026;2023-02-18T21:48:57;8.30;99.90
52471;DHT22;38382;53.160;7.026;2023-02-18T21:54:26;8.30;99.90
52471;DHT22;38382;53.160;7.026;2023-02-18T21:56:56;8.30;99.90
52471;DHT22;38382;53.160;7.026;2023-02-18T21:59:37;8.40;99.90
52471;DHT22;38382;53.160;7.026;2023-02-18T22:05:01;7.80;99.90
52471;DHT22;38382;53.160;7.026;2023-02-18T22:07:28;8.20;99.90
52471;DHT22;38382;53.160;7.026;2023-02-18T22:09:54;8.30;99.90
52471;DHT22;38382;53.160;7.026;2023-02-18T22:12:21;8.30;99.90
52471;DHT22;38382;53.160;7.026;2023-02-18T22:14:48;8.20;99.90
52471;DHT22;38382;53.160;7.026;2023-02-18T22:17:14;8.20;99.90
52471;DHT22;38382;53.160;7.026;2023-02-18T22:19:41;8.30;99.90
52471;DHT22;38382;53.160;7.026;2023-02-18T22:22:07;8.20;99.90
52471;DHT22;38382;53.160;7.026;2023-02-18T22:24:57;8.20;99.90
52471;DHT22;38382;53.160;7.026;2023-02-18T22:27:26;7.70;99.90
52471;DHT22;38382;53.160;7.026;2023-02-18T22:30:20;8.20;99.90
52471;DHT22;38382;53.160;7.026;2023-02-18T22:33:06;8.40;99.90
52471;DHT22;38382;53.160;7.026;2023-02-18T22:35:32;8.10;99.90
52471;DHT22;38382;53.160;7.026;2023-02-18T22:37:58;8.30;99.90
52471;DHT22;38382;53.160;7.026;2023-02-18T22:40:42;8.20;99.90
52471;DHT22;38382;53.160;7.026;2023-02-18T22:43:07;8.30;99.90
52471;DHT22;38382;53.160;7.026;2023-02-18T22:45:36;8.30;99.90
52471;DHT22;38382;53.160;7.026;2023-02-18T22:48:03;8.20;99.90
52471;DHT22;38382;53.160;7.026;2023-02-18T22:50:36;8.20;99.90
52471;DHT22;38382;53.160;7.026;2023-02-18T22:53:16;8.30;99.90
52471;DHT22;38382;53.160;7.026;2023-02-18T22:55:42;8.20;99.90
52471;DHT22;38382;53.160;7.026;2023-02-18T23:00:58;7.90;99.90
52471;DHT22;38382;53.160;7.026;2023-02-18T23:03:27;8.20;99.90